Ride Results

Freemantle (02-08-2009)
Ride distance: 80.0 km

Outcomes - Freemantle (02-08-2009)
Division No. of Entries Retired / DNE Completed Withdrawn Ineligible V/O Percentage Completed
HW 16 - 12 2 - 2 75.00%
MW 26 - 16 4 1 5 61.54%
LW 13 - 11 - - 2 84.62%
JN 4 - 3 - - 1 75.00%
Totals 59 - 42 6 1 10 71.19%
Results - Freemantle (02-08-2009)
No. Rider Horse Place Time Leg Speeds Total
Km/Hr
H/R bpm
Heavyweight
56 Brodie Freeman Cedar Ridge D''Artagnan 1 4:50:00 15.9, 17.3 16.55 29, 42, 48 (Avg:45)
38 Mark Lindsay Kintamani Silver Motif 2 5:42:00 13.0, 15.5 14.04 33, 45, 50 (Avg:47)
11 Con Bouzianis Conderosa Rassim 3 5:53:00 12.0, 16.2 13.60 32, 32, 38 (Avg:35)
44 Frank Mollema Billywillinga Rocky 4 (BC) 6:05:00 12.6, 13.8 13.15 30, 36, 40 (Avg:38)
6 Len Derkacz Salam Zahbeel 5 6:11:00 11.9, 14.3 12.94 37, 50, 50 (Avg:50)
49 Roy Barsby Dumaresque Montgomery 6 6:58:00 10.5, 12.9 11.48 40, 44, 45 (Avg:44)
33 Allan Caslick Clovelly Park Kazeem 7 7:25:00 9.9, 12.0 10.79 31, 38, 38 (Avg:38)
52 Stuart Hitchcock Ralvon Courier 8 8:02:00 9.5, 10.5 9.96 30, 43, 44 (Avg:43)
14 Tine Pederson Aloha Kodiak 9 8:02:01 9.6, 10.4 9.96 36, 35, 39 (Avg:37)
26 Wendy Bushell Arabesque Arabella 10 8:31:00 9.4, 9.3 9.39 33, 40, 42 (Avg:41)
27 Arthur Mulholland Arabesque Alladin 10 8:31:00 9.4, 9.3 9.39 38, 47, 42 (Avg:44)
1 John Howe Ashbend Perazzi 12 8:35:00 9.5, 9.0 9.32 38, 45, 44 (Avg:44)
53 Ian Dreghorn Mountain Breeze Jack The Ripper Lame L1 0:00:00 11.5 - 30, 45 (Avg:45)
37 Jason Duff Jamil Razah Gazelle Withdrawn L1 0:00:00 - - 38, 41 (Avg:41)
13 Haydn Fisher Aylah Lame L1 0:00:00 9.4 - 31, 39 (Avg:39)
22 Charles Gauci Charleville Lady Withdrawn L1 0:00:00 - - 35, 54 (Avg:54)
Middleweight
5 Garry Bennett Karabil Yaningi 1 (BC) 4:56:00 15.6, 16.9 16.22 28, 39, 41 (Avg:40)
16 Carol Major Major Luke 2 5:58:00 12.6, 14.5 13.41 37, 43, 51 (Avg:47)
34 Neroli Mitchell- Cooper Bilbo 3 6:32:00 12.6, 11.7 12.24 34, 46, 44 (Avg:45)
40 Mary Symons Ralvon Vim 3 6:32:00 12.1, 12.4 12.24 39, 42, 0 (Avg:21)
54 Cathy Walton Danny 5 7:05:00 9.2, 15.7 11.29 32, 43, 50 (Avg:46)
17 Garry Weis Kazanova 6 7:27:00 11.2, 10.0 10.74 40, 48, 45 (Avg:46)
29 Virginia Blain Salam Mezzlah 7 7:38:00 9.7, 11.6 10.48 40, 52, 41 (Avg:46)
60 Debbie Pevy Dasstroyer 8 7:39:00 9.7, 11.5 10.46 44, 42, 42 (Avg:42)
21 Louise McCormack Sherwood Haven Skye 9 7:41:00 10.2, 10.6 10.41 40, 48, 42 (Avg:45)
9 Raymond Griffiths Hazeldean Sahara 10 7:55:00 9.7, 10.6 10.11 32, 32, 44 (Avg:38)
41 Julia Delaney Sir Ali Karim 11 8:02:00 9.6, 10.4 9.96 34, 44, 46 (Avg:45)
15 Gail Fisher Arasarta Narhalinian 11 8:02:00 9.4, 10.6 9.96 44, 44 (Avg:44)
32 Tracy Haack D-Lua Park Moniette 13 8:28:00 9.1, 9.8 9.45 34, 48, 50 (Avg:49)
31 Ruth Van der Wegen Razorback Kendra 13 8:28:00 9.1, 9.8 9.45 36, 42, 44 (Avg:43)
51 Allison Knihinicki Noble Navaar Sharazarn 15 8:37:00 8.7, 10.1 9.28 30, 46, 48 (Avg:47)
47 Chris Noonan Bridle Track Dasha 15 8:37:00 11.2, 7.5 9.28 33, 39, 40 (Avg:39)
2 Dianne Luker Kintamani Silver Harmony Disqualified L2 0:00:00 12.5, 15.9 - 30, 44, 51 (Avg:47)
3 Tom Bouzianis Conderosa Sara Lame L1 0:00:00 12.0 - 32, 36 (Avg:36)
46 Brooke Holden Shambala Bold N Brassy Withdrawn L1 0:00:00 - - 36, 50 (Avg:50)
50 Rochelle Knihinicki Tuldar Ronnie Lame L1 0:00:00 2.5 - 40, 55 (Avg:55)
39 Alan Lindsay Kintamani Silver Flame Lame L1 0:00:00 12.1 - 35, 42 (Avg:42)
43 Jamie Mollema Littlebanks Tic Tac Toe Lame L1 0:00:00 14.8 - 32, 47 (Avg:47)
12 Daphne Phillips Gene Geany Withdrawn L1 0:00:00 - - 35, 44 (Avg:44)
19 Marita Rifai A'Landell Spirit Lame L1 0:00:00 11.2 - 35, 44 (Avg:44)
30 Brett Willis One Eye Quintex Withdrawn L1 0:00:00 - - 32, 41 (Avg:41)
35 Jo Bailey McDonald Park Focus Withdrawn P/R 0:00:00 - - 35
Lightweight
55 Carly Nix Dunbar El Maestro 1 5:49:00 12.3, 16.1 13.75 46, 44, 51 (Avg:47)
4 Anita Rodgers Conderosa Zoltan 2 (BC) 5:54:00 12.0, 16.1 13.56 36, 44, 45 (Avg:44)
59 Louise Stevens Ivahri Gold & Silver 3 6:20:00 12.4, 12.8 12.63 34, 39, 38 (Avg:38)
58 Courtney Anderson Cedar Ridge Blue Moon 4 6:50:00 12.5, 10.7 11.71 38, 43, 55 (Avg:49)
48 Deanna Trevena Warr of the Roses 5 6:58:00 10.5, 12.9 11.48 38, 37, 45 (Avg:41)
23 Lynn Coles Pinedene Robbie 6 7:45:00 10.5, 10.0 10.32 37, 36, 43 (Avg:39)
24 Jan Wade Hajra Leonie 6 7:45:00 10.5, 10.0 10.32 32, 36, 46 (Avg:41)
7 Carol Layton Oak-Glen Isis 8 7:55:00 9.7, 10.6 10.11 33, 43, 42 (Avg:42)
8 Linda Logan Follydown Topaz 9 7:55:01 9.9, 10.3 10.10 38, 44, 44 (Avg:44)
36 Lee Duff Aratahnes Premier 10 8:33:00 8.8, 10.0 9.36 48, 40, 37 (Avg:38)
45 Tara Brown Blackwood Springs Rhapsody 11 8:37:00 9.9, 8.5 9.28 31, 40, 49 (Avg:44)
20 Natasha Mitchell Kadimah Park Ra'am Lame L2 0:00:00 12.6, 11.2 - 38, 46, 49 (Avg:47)
28 Barb Giddins Taraglen Wisdom Lame L1 0:00:00 10.1 - 38, 42 (Avg:42)
Junior
25 Leanna Maynard Coco 1 (BC) 5:39:00 14.0, 14.2 14.16 31, 45, 56 (Avg:50)
18 Brianna Webb Erin Park New Moon 2 7:08:00 11.0, 11.4 11.21 30, 42, 42 (Avg:42)
10 Tyra Pedersen Ja-Rob Sweet Dreams 3 8:02:00 9.6, 10.4 9.96 40, 38, 40 (Avg:39)
42 Ben Hudson Mandy Lame L2 0:00:00 14.8, 18.4 - 40, 40, 51 (Avg:45)